createdAt,value
2016-02-17T00:00:23.964Z,0
2016-02-17T00:01:23.952Z,0
2016-02-17T00:02:23.938Z,0
2016-02-17T00:03:23.941Z,0
2016-02-17T00:04:23.771Z,0
2016-02-17T00:05:23.931Z,0
2016-02-17T00:06:23.934Z,0
2016-02-17T00:07:23.936Z,0
2016-02-17T00:08:23.908Z,0
2016-02-17T00:09:23.895Z,0
2016-02-17T00:10:23.929Z,0
2016-02-17T00:11:23.900Z,0
2016-02-17T00:12:23.888Z,0
2016-02-17T00:13:23.874Z,0
2016-02-17T00:14:23.862Z,0
2016-02-17T00:15:23.865Z,0
2016-02-17T00:16:23.835Z,0
2016-02-17T00:17:23.838Z,0
2016-02-17T00:18:23.840Z,0
2016-02-17T00:19:23.843Z,0
2016-02-17T00:20:23.800Z,0
2016-02-17T00:21:23.817Z,0
2016-02-17T00:22:23.789Z,0
2016-02-17T00:23:23.792Z,0
2016-02-17T00:24:23.778Z,0
2016-02-17T00:25:23.797Z,0
2016-02-17T00:26:23.784Z,0
2016-02-17T00:27:23.772Z,0
2016-02-17T00:28:23.759Z,0
2016-02-17T00:29:23.777Z,0
2016-02-17T00:30:23.753Z,0
2016-02-17T00:31:23.740Z,0
2016-02-17T00:32:23.727Z,0
2016-02-17T00:33:23.730Z,0
2016-02-17T00:34:23.702Z,0
2016-02-17T00:35:23.704Z,0
2016-02-17T00:36:23.691Z,0
2016-02-17T00:37:23.710Z,0
2016-02-17T00:38:23.696Z,0
2016-02-17T00:39:23.684Z,0
2016-02-17T00:40:23.670Z,0
2016-02-17T00:41:23.658Z,0
2016-02-17T00:42:23.645Z,0
2016-02-17T00:43:23.663Z,0
2016-02-17T00:44:23.650Z,0
2016-02-17T00:45:23.621Z,0
2016-02-17T00:46:23.624Z,0
2016-02-17T00:47:23.627Z,0
2016-02-17T00:48:23.629Z,0
2016-02-17T00:49:23.601Z,0
2016-02-17T00:50:23.589Z,0
2016-02-17T00:51:23.622Z,0
2016-02-17T00:52:23.625Z,0
2016-02-17T00:53:23.596Z,0
2016-02-17T00:54:23.568Z,0
2016-02-17T00:55:23.539Z,0
2016-02-17T00:56:23.480Z,0
2016-02-17T00:57:23.544Z,0
2016-02-17T00:58:23.531Z,0
2016-02-17T00:59:23.534Z,0
2016-02-17T01:00:23.521Z,0
2016-02-17T01:01:23.508Z,0
2016-02-17T01:02:23.496Z,0
2016-02-17T01:03:23.499Z,0
2016-02-17T01:04:23.501Z,0
2016-02-17T01:05:23.488Z,0
2016-02-17T01:06:23.474Z,0
2016-02-17T01:07:23.478Z,0
2016-02-17T01:08:23.465Z,0
2016-02-17T01:09:23.468Z,0
2016-02-17T01:10:23.470Z,0
2016-02-17T01:11:23.488Z,0
2016-02-17T01:12:23.429Z,0
2016-02-17T01:13:23.415Z,0
2016-02-17T01:14:23.418Z,0
2016-02-17T01:15:23.421Z,0
2016-02-17T01:16:23.408Z,0
2016-02-17T01:17:23.395Z,0
2016-02-17T01:18:23.382Z,0
2016-02-17T01:19:23.385Z,0
2016-02-17T01:20:23.387Z,0
2016-02-17T01:21:23.375Z,0
2016-02-17T01:22:23.361Z,0
2016-02-17T01:23:23.349Z,0
2016-02-17T01:24:23.320Z,0
2016-02-17T01:25:23.339Z,0
2016-02-17T01:26:23.326Z,0
2016-02-17T01:27:23.313Z,0
2016-02-17T01:28:23.300Z,0
2016-02-17T01:29:23.303Z,0
2016-02-17T01:30:23.305Z,0
2016-02-17T01:31:23.167Z,0
2016-02-17T01:32:23.295Z,0
2016-02-17T01:33:23.282Z,0
2016-02-17T01:34:23.269Z,0
2016-02-17T01:35:23.255Z,0
2016-02-17T01:36:23.244Z,0
2016-02-17T01:37:23.246Z,0
2016-02-17T01:38:23.233Z,0
2016-02-17T01:39:23.220Z,0
2016-02-17T01:40:23.223Z,0
2016-02-17T01:41:23.194Z,0
2016-02-17T01:42:23.196Z,0
2016-02-17T01:43:23.184Z,0
2016-02-17T01:44:23.187Z,0
2016-02-17T01:45:23.190Z,0
2016-02-17T01:46:23.176Z,0
2016-02-17T01:47:23.163Z,0
2016-02-17T01:48:23.151Z,0
2016-02-17T01:49:22.981Z,0
2016-02-17T01:50:23.140Z,0
2016-02-17T01:51:23.127Z,0
2016-02-17T01:52:23.114Z,0
2016-02-17T01:53:23.117Z,0
2016-02-17T01:54:23.104Z,0
2016-02-17T01:55:23.106Z,0
2016-02-17T01:56:23.219Z,0
2016-02-17T01:57:23.081Z,0
2016-02-17T01:58:23.053Z,0
2016-02-17T01:59:23.055Z,0
2016-02-17T02:00:23.042Z,0
2016-02-17T02:01:23.045Z,0
2016-02-17T02:02:23.016Z,0
2016-02-17T02:03:23.019Z,0
2016-02-17T02:04:23.021Z,0
2016-02-17T02:05:23.024Z,0
2016-02-17T02:06:23.011Z,0
2016-02-17T02:07:23.013Z,0
2016-02-17T02:08:22.986Z,0
2016-02-17T02:09:22.972Z,0
2016-02-17T02:10:22.960Z,0
2016-02-17T02:11:22.947Z,0
2016-02-17T02:12:22.934Z,0
2016-02-17T02:13:22.937Z,0
2016-02-17T02:14:22.924Z,0
2016-02-17T02:15:22.926Z,0
2016-02-17T02:16:22.913Z,0
2016-02-17T02:17:22.901Z,0
2016-02-17T02:18:22.904Z,0
2016-02-17T02:19:22.890Z,0
2016-02-17T02:20:22.736Z,0
2016-02-17T02:21:22.864Z,0
2016-02-17T02:22:22.867Z,0
2016-02-17T02:23:22.854Z,0
2016-02-17T02:24:22.872Z,0
2016-02-17T02:25:22.845Z,0
2016-02-17T02:26:22.832Z,0
2016-02-17T02:27:22.819Z,0
2016-02-17T02:28:22.821Z,0
2016-02-17T02:29:22.809Z,0
2016-02-17T02:30:22.796Z,0
2016-02-17T02:31:22.798Z,0
2016-02-17T02:32:22.785Z,0
2016-02-17T02:33:22.772Z,0
2016-02-17T02:34:22.760Z,0
2016-02-17T02:35:22.762Z,0
2016-02-17T02:36:22.765Z,0
2016-02-17T02:37:22.736Z,0
2016-02-17T02:38:22.739Z,0
2016-02-17T02:39:22.742Z,0
2016-02-17T02:40:22.713Z,0
2016-02-17T02:41:22.700Z,0
2016-02-17T02:42:22.719Z,0
2016-02-17T02:43:22.706Z,0
2016-02-17T02:44:22.692Z,0
2016-02-17T02:45:22.695Z,0
2016-02-17T02:46:22.683Z,0
2016-02-17T02:47:22.670Z,0
2016-02-17T02:48:22.641Z,0
2016-02-17T02:49:22.644Z,0
2016-02-17T02:50:22.630Z,0
2016-02-17T02:51:22.649Z,0
2016-02-17T02:52:22.605Z,0
2016-02-17T02:53:22.623Z,0
2016-02-17T02:54:22.594Z,0
2016-02-17T02:55:22.582Z,0
2016-02-17T02:56:22.616Z,0
2016-02-17T02:57:22.588Z,0
2016-02-17T02:58:22.559Z,0
2016-02-17T02:59:22.562Z,0
2016-02-17T03:00:22.548Z,0
2016-02-17T03:01:22.551Z,0
2016-02-17T03:02:22.537Z,0
2016-02-17T03:03:22.526Z,0
2016-02-17T03:04:22.512Z,0
2016-02-17T03:05:22.531Z,0
2016-02-17T03:06:22.501Z,0
2016-02-17T03:07:22.489Z,0
2016-02-17T03:08:22.476Z,0
2016-02-17T03:09:22.463Z,0
2016-02-17T03:10:22.450Z,0
2016-02-17T03:11:22.469Z,0
2016-02-17T03:12:22.440Z,0
2016-02-17T03:13:22.458Z,0
2016-02-17T03:14:22.414Z,0
2016-02-17T03:15:22.432Z,0
2016-02-17T03:16:22.404Z,0
2016-02-17T03:17:22.406Z,0
2016-02-17T03:18:22.409Z,0
2016-02-17T03:19:22.380Z,0
2016-02-17T03:20:22.383Z,0
2016-02-17T03:21:22.386Z,0
2016-02-17T03:22:22.357Z,0
2016-02-17T03:23:22.360Z,0
2016-02-17T03:24:22.332Z,0
2016-02-17T03:25:22.335Z,0
2016-02-17T03:26:22.321Z,0
2016-02-17T03:27:22.308Z,0
2016-02-17T03:28:22.311Z,0
2016-02-17T03:29:22.282Z,0
2016-02-17T03:30:22.285Z,0
2016-02-17T03:31:22.272Z,0
2016-02-17T03:32:22.260Z,0
2016-02-17T03:33:22.278Z,0
2016-02-17T03:34:22.249Z,0
2016-02-17T03:35:22.237Z,0
2016-02-17T03:36:22.254Z,0
2016-02-17T03:37:22.226Z,0
2016-02-17T03:38:22.212Z,0
2016-02-17T03:39:22.200Z,0
2016-02-17T03:40:22.203Z,0
2016-02-17T03:41:22.190Z,0
2016-02-17T03:42:22.192Z,0
2016-02-17T03:43:22.164Z,0
2016-02-17T03:44:22.166Z,0
2016-02-17T03:45:22.169Z,0
2016-02-17T03:46:22.156Z,0
2016-02-17T03:47:22.144Z,0
2016-02-17T03:48:22.146Z,0
2016-02-17T03:49:22.117Z,0
2016-02-17T03:50:22.120Z,0
2016-02-17T03:51:21.935Z,0
2016-02-17T03:52:22.079Z,0
2016-02-17T03:53:22.082Z,0
2016-02-17T03:54:22.069Z,0
2016-02-17T03:55:22.071Z,0
2016-02-17T03:56:22.090Z,0
2016-02-17T03:57:22.046Z,0
2016-02-17T03:58:22.063Z,0
2016-02-17T03:59:22.035Z,0
2016-02-17T04:00:22.037Z,0
2016-02-17T04:01:22.010Z,0
2016-02-17T04:02:22.027Z,0
2016-02-17T04:03:22.015Z,0
2016-02-17T04:04:22.033Z,0
2016-02-17T04:05:21.989Z,0
2016-02-17T04:06:21.992Z,0
2016-02-17T04:07:21.962Z,0
2016-02-17T04:08:21.965Z,0
2016-02-17T04:09:21.953Z,0
2016-02-17T04:10:21.956Z,0
2016-02-17T04:11:21.926Z,0
2016-02-17T04:12:21.945Z,0
2016-02-17T04:13:21.916Z,0
2016-02-17T04:14:21.919Z,0
2016-02-17T04:15:21.906Z,0
2016-02-17T04:16:21.737Z,0
2016-02-17T04:17:21.880Z,0
2016-02-17T04:18:21.867Z,0
2016-02-17T04:19:21.855Z,0
2016-02-17T04:20:21.857Z,0
2016-02-17T04:21:21.844Z,0
2016-02-17T04:22:21.831Z,0
2016-02-17T04:23:21.834Z,0
2016-02-17T04:24:21.821Z,0
2016-02-17T04:25:21.808Z,0
2016-02-17T04:26:21.811Z,0
2016-02-17T04:27:21.798Z,0
2016-02-17T04:28:21.785Z,0
2016-02-17T04:29:21.787Z,0
2016-02-17T04:30:21.759Z,0
2016-02-17T04:31:21.762Z,0
2016-02-17T04:32:21.749Z,0
2016-02-17T04:33:21.768Z,0
2016-02-17T04:34:21.723Z,0
2016-02-17T04:35:21.741Z,0
2016-02-17T04:36:21.712Z,0
2016-02-17T04:37:21.746Z,0
2016-02-17T04:38:21.718Z,0
2016-02-17T04:39:21.721Z,0
2016-02-17T04:40:21.692Z,0
2016-02-17T04:41:21.711Z,0
2016-02-17T04:42:21.681Z,0
2016-02-17T04:43:21.653Z,0
2016-02-17T04:44:21.656Z,0
2016-02-17T04:45:21.642Z,0
2016-02-17T04:46:21.646Z,0
2016-02-17T04:47:21.648Z,0
2016-02-17T04:48:21.620Z,0
2016-02-17T04:49:21.608Z,0
2016-02-17T04:50:21.610Z,0
2016-02-17T04:51:21.597Z,0
2016-02-17T04:52:21.584Z,0
2016-02-17T04:53:21.571Z,0
2016-02-17T04:54:21.636Z,0
2016-02-17T04:55:21.577Z,0
2016-02-17T04:56:21.579Z,0
2016-02-17T04:57:21.535Z,0
2016-02-17T04:58:21.537Z,0
2016-02-17T04:59:21.555Z,0
2016-02-17T05:00:21.527Z,0
2016-02-17T05:01:21.530Z,0
2016-02-17T05:02:21.502Z,0
2016-02-17T05:03:21.504Z,0
2016-02-17T05:04:21.491Z,0
2016-02-17T05:05:21.509Z,0
2016-02-17T05:06:21.465Z,0
2016-02-17T05:07:21.484Z,0
2016-02-17T05:08:21.455Z,0
2016-02-17T05:09:21.443Z,0
2016-02-17T05:10:21.445Z,0
2016-02-17T05:11:21.432Z,0
2016-02-17T05:12:21.434Z,0
2016-02-17T05:13:21.406Z,0
2016-02-17T05:14:21.408Z,0
2016-02-17T05:15:21.396Z,0
2016-02-17T05:16:21.398Z,0
2016-02-17T05:17:21.386Z,0
2016-02-17T05:18:21.373Z,0
2016-02-17T05:19:21.375Z,0
2016-02-17T05:20:21.425Z,0
2016-02-17T05:21:28.818Z,0
2016-02-17T05:22:21.352Z,0
2016-02-17T05:23:21.324Z,0
2016-02-17T05:24:21.358Z,0
2016-02-17T05:25:21.314Z,0
2016-02-17T05:26:21.332Z,0
2016-02-17T05:27:21.725Z,0
2016-02-17T05:28:21.305Z,0
2016-02-17T05:29:21.293Z,0
2016-02-17T05:30:21.296Z,0
2016-02-17T05:31:21.252Z,0
2016-02-17T05:32:21.285Z,0
2016-02-17T05:33:21.257Z,0
2016-02-17T05:34:21.274Z,0
2016-02-17T05:35:21.231Z,0
2016-02-17T05:36:21.234Z,0
2016-02-17T05:37:21.049Z,0
2016-02-17T05:38:21.224Z,0
2016-02-17T05:39:21.195Z,0
2016-02-17T05:40:21.213Z,0
2016-02-17T05:41:21.200Z,0
2016-02-17T05:42:21.187Z,4
2016-02-17T05:43:21.173Z,4
2016-02-17T05:44:21.162Z,0
2016-02-17T05:45:21.164Z,4
2016-02-17T05:46:21.136Z,4
2016-02-17T05:47:21.139Z,4
2016-02-17T05:48:21.125Z,4
2016-02-17T05:49:21.128Z,4
2016-02-17T05:50:21.099Z,4
2016-02-17T05:51:21.117Z,8
2016-02-17T05:52:21.089Z,8
2016-02-17T05:53:21.092Z,12
2016-02-17T05:54:21.079Z,16
2016-02-17T05:55:21.097Z,16
2016-02-17T05:56:21.100Z,20
2016-02-17T05:57:21.071Z,28
2016-02-17T05:58:21.043Z,28
2016-02-17T05:59:21.029Z,36
2016-02-17T06:00:21.033Z,44
2016-02-17T06:01:21.036Z,48
2016-02-17T06:02:21.022Z,56
2016-02-17T06:03:21.024Z,64
2016-02-17T06:04:20.996Z,72
2016-02-17T06:05:20.999Z,84
2016-02-17T06:06:20.985Z,92
2016-02-17T06:07:21.005Z,108
2016-02-17T06:08:20.960Z,120
2016-02-17T06:09:20.979Z,136
2016-02-17T06:10:21.153Z,152
2016-02-17T06:11:20.937Z,168
2016-02-17T06:12:20.956Z,188
2016-02-17T06:13:20.926Z,204
2016-02-17T06:14:20.930Z,228
2016-02-17T06:15:20.901Z,248
2016-02-17T06:16:20.919Z,272
2016-02-17T06:17:20.906Z,296
2016-02-17T06:18:20.893Z,320
2016-02-17T06:19:20.865Z,348
2016-02-17T06:20:20.868Z,380
2016-02-17T06:21:20.870Z,404
2016-02-17T06:22:20.841Z,432
2016-02-17T06:23:20.861Z,464
2016-02-17T06:24:20.817Z,496
2016-02-17T06:25:20.819Z,524
2016-02-17T06:26:20.822Z,556
2016-02-17T06:27:20.808Z,592
2016-02-17T06:28:20.780Z,620
2016-02-17T06:29:20.813Z,656
2016-02-17T06:30:20.769Z,684
2016-02-17T06:31:20.788Z,720
2016-02-17T06:32:20.791Z,752
2016-02-17T06:33:20.747Z,784
2016-02-17T06:34:20.749Z,816
2016-02-17T06:35:20.736Z,848
2016-02-17T06:36:20.723Z,880
2016-02-17T06:37:20.726Z,912
2016-02-17T06:38:20.712Z,944
2016-02-17T06:39:20.716Z,972
2016-02-17T06:40:20.688Z,1000
2016-02-17T06:41:20.705Z,1028
2016-02-17T06:42:20.677Z,1060
2016-02-17T06:43:20.679Z,1088
2016-02-17T06:44:20.651Z,1116
2016-02-17T06:45:20.653Z,1148
2016-02-17T06:46:20.640Z,1172
2016-02-17T06:47:20.660Z,1204
2016-02-17T06:48:20.615Z,1232
2016-02-17T06:49:20.618Z,1260
2016-02-17T06:50:20.604Z,1288
2016-02-17T06:51:20.607Z,1312
2016-02-17T06:52:20.626Z,1336
2016-02-17T06:53:20.581Z,1364
2016-02-17T06:54:20.583Z,1388
2016-02-17T06:55:20.572Z,1412
2016-02-17T06:56:20.590Z,1436
2016-02-17T06:57:20.608Z,1460
2016-02-17T06:58:20.563Z,1484
2016-02-17T06:59:20.550Z,1508
2016-02-17T07:00:20.553Z,1528
2016-02-17T07:01:20.524Z,1552
2016-02-17T07:02:20.512Z,1572
2016-02-17T07:03:20.547Z,1596
2016-02-17T07:04:20.516Z,1624
2016-02-17T07:05:20.488Z,1648
2016-02-17T07:06:20.616Z,1668
2016-02-17T07:07:20.510Z,1696
2016-02-17T07:08:20.466Z,1716
2016-02-17T07:09:20.469Z,1736
2016-02-17T07:10:20.533Z,1760
2016-02-17T07:11:20.443Z,1780
2016-02-17T07:12:20.430Z,1800
2016-02-17T07:13:20.448Z,1832
2016-02-17T07:14:20.435Z,1852
2016-02-17T07:15:20.406Z,1872
2016-02-17T07:16:20.425Z,1892
2016-02-17T07:17:20.396Z,1912
2016-02-17T07:18:20.211Z,1932
2016-02-17T07:19:20.401Z,1956
2016-02-17T07:20:20.357Z,1980
2016-02-17T07:21:20.375Z,2000
2016-02-17T07:22:20.363Z,2028
2016-02-17T07:23:20.349Z,2060
2016-02-17T07:24:20.353Z,2096
2016-02-17T07:25:20.323Z,2132
2016-02-17T07:26:20.326Z,2172
2016-02-17T07:27:20.314Z,2232
2016-02-17T07:28:20.300Z,2312
2016-02-17T07:29:20.288Z,2368
2016-02-17T07:30:20.337Z,2428
2016-02-17T07:31:20.293Z,2492
2016-02-17T07:32:20.265Z,2540
2016-02-17T07:33:20.252Z,2628
2016-02-17T07:34:20.255Z,2720
2016-02-17T07:35:20.257Z,2824
2016-02-17T07:36:20.228Z,2908
2016-02-17T07:37:20.216Z,3044
2016-02-17T07:38:20.249Z,3136
2016-02-17T07:39:20.205Z,3284
2016-02-17T07:40:20.208Z,3372
2016-02-17T07:41:20.227Z,3464
2016-02-17T07:42:20.182Z,3512
2016-02-17T07:43:20.185Z,3536
2016-02-17T07:44:20.204Z,3496
2016-02-17T07:45:20.159Z,3496
2016-02-17T07:46:20.161Z,3504
2016-02-17T07:47:20.165Z,3520
2016-02-17T07:48:20.135Z,3508
2016-02-17T07:49:20.135Z,3508
2016-02-17T07:50:20.105Z,3548
2016-02-17T07:51:20.076Z,3628
2016-02-17T07:52:20.062Z,3728
2016-02-17T07:53:20.034Z,3844
2016-02-17T07:54:20.037Z,3940
2016-02-17T07:55:20.002Z,4028
2016-02-17T07:56:20.047Z,4104
2016-02-17T07:57:19.966Z,4168
2016-02-17T07:58:19.946Z,4176
2016-02-17T07:59:19.960Z,4184
2016-02-17T08:00:19.944Z,4104
2016-02-17T08:01:19.929Z,3984
2016-02-17T08:02:19.947Z,3936
2016-02-17T08:03:19.900Z,4020
2016-02-17T08:04:19.902Z,4216
2016-02-17T08:05:19.903Z,4440
2016-02-17T08:06:19.905Z,4648
2016-02-17T08:07:19.876Z,4796
2016-02-17T08:08:19.878Z,4900
2016-02-17T08:09:19.911Z,4980
2016-02-17T08:10:19.851Z,5024
2016-02-17T08:11:19.853Z,4940
2016-02-17T08:12:19.856Z,4752
2016-02-17T08:13:19.826Z,4508
2016-02-17T08:14:19.828Z,4176
2016-02-17T08:15:19.831Z,3604
2016-02-17T08:16:19.052Z,3104
2016-02-17T08:17:19.806Z,3028
2016-02-17T08:18:19.808Z,3032
2016-02-17T08:19:19.796Z,3120
2016-02-17T08:20:19.798Z,3200
2016-02-17T08:21:19.801Z,3312
2016-02-17T08:22:19.804Z,3512
2016-02-17T08:23:19.759Z,3768
2016-02-17T08:24:19.763Z,4052
2016-02-17T08:25:19.796Z,4316
2016-02-17T08:26:19.752Z,4540
2016-02-17T08:27:19.755Z,4636
2016-02-17T08:28:19.742Z,4656
2016-02-17T08:29:19.729Z,4732
2016-02-17T08:30:19.716Z,4900
2016-02-17T08:31:19.750Z,5056
2016-02-17T08:32:20.034Z,5156
2016-02-17T08:33:19.692Z,5120
2016-02-17T08:34:19.696Z,5044
2016-02-17T08:35:19.698Z,5164
2016-02-17T08:36:19.685Z,4904
2016-02-17T08:37:19.687Z,4432
2016-02-17T08:38:19.690Z,4496
2016-02-17T08:39:19.678Z,5036
2016-02-17T08:40:19.665Z,5784
2016-02-17T08:41:19.651Z,6404
2016-02-17T08:42:19.654Z,6700
2016-02-17T08:43:19.642Z,6600
2016-02-17T08:44:19.645Z,6344
2016-02-17T08:45:19.648Z,6160
2016-02-17T08:46:19.634Z,6004
2016-02-17T08:47:19.637Z,5684
2016-02-17T08:48:19.609Z,4800
2016-02-17T08:49:19.595Z,3784
2016-02-17T08:50:19.598Z,4268
2016-02-17T08:51:19.585Z,5824
2016-02-17T08:52:19.588Z,7120
2016-02-17T08:53:19.574Z,7796
2016-02-17T08:54:19.577Z,7888
2016-02-17T08:55:19.596Z,7864
2016-02-17T08:56:19.614Z,7704
2016-02-17T08:57:19.555Z,7488
2016-02-17T08:58:19.557Z,7348
2016-02-17T08:59:19.544Z,7116
2016-02-17T09:00:19.546Z,7012
2016-02-17T09:01:19.549Z,6972
2016-02-17T09:02:19.537Z,6944
2016-02-17T09:03:19.524Z,6904
2016-02-17T09:04:19.527Z,6968
2016-02-17T09:05:19.513Z,7080
2016-02-17T09:06:19.501Z,7508
2016-02-17T09:07:19.518Z,8272
2016-02-17T09:08:19.490Z,9020
2016-02-17T09:09:19.493Z,9844
2016-02-17T09:10:19.526Z,10072
2016-02-17T09:11:19.482Z,9796
2016-02-17T09:12:19.484Z,9180
2016-02-17T09:13:19.473Z,8520
2016-02-17T09:14:19.491Z,8072
2016-02-17T09:15:19.462Z,7824
2016-02-17T09:16:19.465Z,7648
2016-02-17T09:17:19.467Z,7388
2016-02-17T09:18:19.439Z,7032
2016-02-17T09:19:19.441Z,6764
2016-02-17T09:20:19.428Z,6624
2016-02-17T09:21:19.431Z,6556
2016-02-17T09:22:19.433Z,6492
2016-02-17T09:23:19.437Z,6396
2016-02-17T09:24:19.408Z,6332
2016-02-17T09:25:19.411Z,6308
2016-02-17T09:26:19.429Z,6492
2016-02-17T09:27:19.400Z,6816
2016-02-17T09:28:19.387Z,7184
2016-02-17T09:29:19.250Z,7552
2016-02-17T09:30:19.393Z,8016
2016-02-17T09:31:19.380Z,8352
2016-02-17T09:32:19.382Z,8428
2016-02-17T09:33:19.385Z,8380
2016-02-17T09:34:19.373Z,8224
2016-02-17T09:35:19.343Z,7892
2016-02-17T09:36:19.347Z,7584
2016-02-17T09:37:19.366Z,7360
2016-02-17T09:38:19.352Z,7196
2016-02-17T09:39:19.355Z,7136
2016-02-17T09:40:19.373Z,7340
2016-02-17T09:41:19.329Z,7348
2016-02-17T09:42:19.332Z,6880
2016-02-17T09:43:19.334Z,6320
2016-02-17T09:44:19.321Z,6060
2016-02-17T09:45:19.308Z,6108
2016-02-17T09:46:19.311Z,6244
2016-02-17T09:47:19.314Z,6396
2016-02-17T09:48:19.301Z,6544
2016-02-17T09:49:19.288Z,6740
2016-02-17T09:50:19.306Z,6968
2016-02-17T09:51:19.294Z,7164
2016-02-17T09:52:19.281Z,7400
2016-02-17T09:53:19.252Z,7732
2016-02-17T09:54:19.270Z,8064
2016-02-17T09:55:19.272Z,8196
2016-02-17T09:56:19.322Z,7904
2016-02-17T09:57:19.247Z,7376
2016-02-17T09:58:19.266Z,6904
2016-02-17T09:59:19.253Z,6664
2016-02-17T10:00:19.239Z,6640
2016-02-17T10:01:19.258Z,6620
2016-02-17T10:02:19.245Z,6612
2016-02-17T10:03:19.247Z,6720
2016-02-17T10:04:19.218Z,7000
2016-02-17T10:05:19.206Z,7404
2016-02-17T10:06:19.209Z,7880
2016-02-17T10:07:19.196Z,8524
2016-02-17T10:08:19.214Z,9184
2016-02-17T10:09:19.217Z,9804
2016-02-17T10:10:19.188Z,10372
2016-02-17T10:11:19.190Z,10920
2016-02-17T10:12:19.193Z,11532
2016-02-17T10:13:19.165Z,11928
2016-02-17T10:14:19.230Z,12116
2016-02-17T10:15:19.171Z,12300
2016-02-17T10:16:19.173Z,12480
2016-02-17T10:17:19.176Z,12680
2016-02-17T10:18:19.178Z,12928
2016-02-17T10:19:19.212Z,12812
2016-02-17T10:20:19.153Z,12448
2016-02-17T10:21:19.155Z,12204
2016-02-17T10:22:19.142Z,12180
2016-02-17T10:23:19.130Z,12192
2016-02-17T10:24:19.147Z,12088
2016-02-17T10:25:19.150Z,12144
2016-02-17T10:26:18.403Z,12340
2016-02-17T10:27:19.125Z,12548
2016-02-17T10:28:19.111Z,12672
2016-02-17T10:29:19.099Z,12936
2016-02-17T10:30:19.086Z,13692
2016-02-17T10:31:19.105Z,14752
2016-02-17T10:32:19.122Z,15548
2016-02-17T10:33:18.935Z,16004
2016-02-17T10:34:19.282Z,16704
2016-02-17T10:35:19.113Z,16960
2016-02-17T10:36:19.099Z,17376
2016-02-17T10:37:19.086Z,17152
2016-02-17T10:38:19.058Z,16896
2016-02-17T10:39:19.077Z,16640
2016-02-17T10:40:19.064Z,15988
2016-02-17T10:41:19.066Z,15492
2016-02-17T10:42:19.054Z,14976
2016-02-17T10:43:19.088Z,14476
2016-02-17T10:44:19.125Z,14180
2016-02-17T10:45:19.193Z,13724
2016-02-17T10:46:19.025Z,13328
2016-02-17T10:47:19.354Z,13676
2016-02-17T10:48:19.081Z,14156
2016-02-17T10:49:19.037Z,14428
2016-02-17T10:50:19.039Z,14432
2016-02-17T10:51:19.043Z,14380
2016-02-17T10:52:18.999Z,14540
2016-02-17T10:53:19.002Z,14688
2016-02-17T10:54:19.005Z,15456
2016-02-17T10:55:19.039Z,17312
2016-02-17T10:56:19.010Z,19872
2016-02-17T10:57:19.007Z,23072
2016-02-17T10:58:19.025Z,25824
2016-02-17T10:59:18.980Z,26560
2016-02-17T11:00:18.983Z,26080
2016-02-17T11:01:19.002Z,25216
2016-02-17T11:02:18.988Z,24672
2016-02-17T11:03:19.007Z,23424
2016-02-17T11:04:18.979Z,22176
2016-02-17T11:05:18.951Z,20704
2016-02-17T11:06:18.968Z,19104
2016-02-17T11:07:18.987Z,17536
2016-02-17T11:08:18.959Z,16044
2016-02-17T11:09:19.007Z,15416
2016-02-17T11:10:18.965Z,14820
2016-02-17T11:11:18.920Z,14260
2016-02-17T11:12:18.938Z,13628
2016-02-17T11:13:18.956Z,13240
2016-02-17T11:14:18.975Z,11988
2016-02-17T11:15:19.009Z,12020
2016-02-17T11:16:33.324Z,11380
2016-02-17T11:17:18.921Z,11156
2016-02-17T11:18:18.986Z,10692
2016-02-17T11:19:19.176Z,11060
2016-02-17T11:20:18.928Z,11216
2016-02-17T11:21:18.931Z,10836
2016-02-17T11:22:18.934Z,9904
2016-02-17T11:23:18.890Z,9908
2016-02-17T11:24:18.908Z,9920
2016-02-17T11:25:18.942Z,9044
2016-02-17T11:26:18.914Z,9264
2016-02-17T11:27:18.900Z,8636
2016-02-17T11:28:18.903Z,7920
2016-02-17T11:29:18.891Z,6876
2016-02-17T11:30:18.878Z,6536
2016-02-17T11:31:18.896Z,6440
2016-02-17T11:32:18.867Z,6376
2016-02-17T11:33:18.855Z,6584
2016-02-17T11:34:19.858Z,6500
2016-02-17T11:35:18.860Z,6560
2016-02-17T11:36:18.847Z,6368
2016-02-17T11:37:18.896Z,5640
2016-02-17T11:38:18.868Z,5540
2016-02-17T11:39:18.838Z,5460
2016-02-17T11:40:18.857Z,5116
2016-02-17T11:41:18.860Z,4712
2016-02-17T11:42:18.847Z,4288
2016-02-17T11:43:18.835Z,3648
2016-02-17T11:44:18.868Z,3552
2016-02-17T11:45:18.824Z,4520
2016-02-17T11:46:18.874Z,4588
2016-02-17T11:47:18.830Z,4724
2016-02-17T11:48:18.818Z,4564
2016-02-17T11:49:18.804Z,4836
2016-02-17T11:50:18.806Z,4836
2016-02-17T11:51:19.169Z,4828
2016-02-17T11:52:18.796Z,5152
2016-02-17T11:53:18.768Z,5428
2016-02-17T11:54:19.037Z,5476
2016-02-17T11:55:18.757Z,5972
2016-02-17T11:56:18.807Z,6288
2016-02-17T11:57:18.779Z,6596
2016-02-17T11:58:18.969Z,6776
2016-02-17T11:59:18.769Z,6452
2016-02-17T12:00:18.756Z,5508
2016-02-17T12:01:18.773Z,6276
2016-02-17T12:02:18.746Z,6832
2016-02-17T12:03:18.748Z,6484
2016-02-17T12:04:18.751Z,6024
2016-02-17T12:05:18.586Z,6532
2016-02-17T12:06:18.745Z,6240
2016-02-17T12:07:18.701Z,7284
2016-02-17T12:08:18.719Z,7860
2016-02-17T12:09:18.722Z,7476
2016-02-17T12:10:18.694Z,7780
2016-02-17T12:11:18.727Z,7960
2016-02-17T12:12:18.699Z,8064
2016-02-17T12:13:18.718Z,8280
2016-02-17T12:14:18.689Z,8772
2016-02-17T12:15:18.691Z,9556
2016-02-17T12:16:18.710Z,9000
2016-02-17T12:17:18.665Z,8792
2016-02-17T12:18:18.669Z,7228
2016-02-17T12:19:18.687Z,6796
2016-02-17T12:20:18.673Z,6716
2016-02-17T12:21:18.693Z,6940
2016-02-17T12:22:18.648Z,6652
2016-02-17T12:23:18.682Z,5896
2016-02-17T12:24:18.637Z,5432
2016-02-17T12:25:18.609Z,4932
2016-02-17T12:26:18.643Z,4940
2016-02-17T12:27:18.615Z,4472
2016-02-17T12:28:18.601Z,4364
2016-02-17T12:29:18.603Z,4984
2016-02-17T12:30:18.639Z,5488
2016-02-17T12:31:18.578Z,5672
2016-02-17T12:32:19.440Z,5576
2016-02-17T12:33:18.631Z,6384
2016-02-17T12:34:18.602Z,6760
2016-02-17T12:35:19.323Z,6500
2016-02-17T12:36:18.561Z,5620
2016-02-17T12:37:18.578Z,5248
2016-02-17T12:38:18.738Z,5396
2016-02-17T12:39:18.772Z,5216
2016-02-17T12:40:18.837Z,4384
2016-02-17T12:41:18.761Z,4024
2016-02-17T12:42:18.702Z,3648
2016-02-17T12:43:18.861Z,3732
2016-02-17T12:44:18.738Z,3852
2016-02-17T12:45:18.757Z,3632
2016-02-17T12:46:18.791Z,3864
2016-02-17T12:47:18.824Z,4192
2016-02-17T12:48:18.733Z,4916
2016-02-17T12:49:18.830Z,5676
2016-02-17T12:50:18.723Z,5840
2016-02-17T12:51:18.835Z,6460
2016-02-17T12:52:18.854Z,7272
2016-02-17T12:53:18.715Z,7568
2016-02-17T12:54:18.703Z,8128
2016-02-17T12:55:18.831Z,7724
2016-02-17T12:56:18.895Z,7108
2016-02-17T12:57:18.757Z,6372
2016-02-17T12:58:18.729Z,5576
2016-02-17T12:59:18.841Z,5192
2016-02-17T13:00:18.673Z,4872
2016-02-17T13:01:18.628Z,4860
2016-02-17T13:02:18.677Z,4588
2016-02-17T13:03:18.759Z,4432
2016-02-17T13:04:18.745Z,4224
2016-02-17T13:05:18.701Z,4132
2016-02-17T13:06:18.641Z,4380
2016-02-17T13:07:18.644Z,4476
2016-02-17T13:08:18.819Z,4568
2016-02-17T13:09:18.697Z,4948
2016-02-17T13:10:18.761Z,5196
2016-02-17T13:11:17.935Z,4972
2016-02-17T13:12:19.688Z,4824
2016-02-17T13:13:17.863Z,5048
2016-02-17T13:14:18.663Z,4904
2016-02-17T13:15:18.680Z,4916
2016-02-17T13:16:18.324Z,4672
2016-02-17T13:17:18.608Z,4256
2016-02-17T13:18:18.736Z,4264
2016-02-17T13:19:18.630Z,4148
2016-02-17T13:20:18.585Z,4036
2016-02-17T13:21:18.525Z,3984
2016-02-17T13:22:18.591Z,3872
2016-02-17T13:23:18.577Z,3636
2016-02-17T13:24:18.501Z,3440
2016-02-17T13:25:18.630Z,3584
2016-02-17T13:26:18.507Z,3924
2016-02-17T13:27:18.495Z,4296
2016-02-17T13:28:18.560Z,4612
2016-02-17T13:29:18.500Z,4756
2016-02-17T13:30:18.518Z,4728
2016-02-17T13:31:18.443Z,4780
2016-02-17T13:32:18.539Z,4612
2016-02-17T13:33:18.479Z,4272
2016-02-17T13:34:18.653Z,4224
2016-02-17T13:35:18.485Z,4120
2016-02-17T13:36:18.456Z,4344
2016-02-17T13:37:17.740Z,4432
2016-02-17T13:38:18.492Z,4268
2016-02-17T13:39:18.558Z,4220
2016-02-17T13:40:18.436Z,4060
2016-02-17T13:41:18.485Z,3724
2016-02-17T13:42:18.253Z,3592
2016-02-17T13:43:18.209Z,3296
2016-02-17T13:44:18.244Z,3472
2016-02-17T13:45:18.215Z,3096
2016-02-17T13:46:18.186Z,3188
2016-02-17T13:47:18.189Z,3216
2016-02-17T13:48:18.223Z,3248
2016-02-17T13:49:18.241Z,3324
2016-02-17T13:50:18.197Z,3252
2016-02-17T13:51:18.231Z,2764
2016-02-17T13:52:18.187Z,2704
2016-02-17T13:53:18.174Z,2680